Time;durP1;ratioP1;P1;durP2;ratioP2;P2;SDS_P1;SDS_P2;PMS_P1;PMS_P2;Temp;Humidity;BMP_temperature;BMP_pressure;BME280_temperature;BME280_humidity;BME280_pressure;Samples;Min_cycle;Max_cycle;Signal;HPM_P1;HPM_P2
2023/01/01 05:01:02;;;;;;;13.65;2.80;;;13.00;99.90;;;;;;6017419;23;20027;-83
2023/01/01 05:03:28;;;;;;;12.48;2.92;;;13.00;99.90;;;;;;6021088;23;20014;-81
2023/01/01 05:06:05;;;;;;;13.25;3.72;;;13.00;99.90;;;;;;6045466;23;20023;-80
2023/01/01 05:08:32;;;;;;;13.75;2.50;;;13.00;99.90;;;;;;6044482;23;20018;-82
2023/01/01 05:11:27;;;;;;;16.05;2.97;;;13.00;99.90;;;;;;6070655;23;20047;-80
2023/01/01 05:13:59;;;;;;;8.52;2.20;;;13.00;99.90;;;;;;6044593;23;20033;-79
2023/01/01 05:16:30;;;;;;;9.77;2.38;;;13.00;99.90;;;;;;6021326;23;20026;-82
2023/01/01 05:18:56;;;;;;;8.00;1.95;;;13.00;99.90;;;;;;6070991;23;20043;-79
2023/01/01 05:21:27;;;;;;;7.68;1.85;;;13.10;99.90;;;;;;6070511;23;20086;-80
2023/01/01 05:23:55;;;;;;;11.40;2.13;;;13.20;99.90;;;;;;6044634;23;20042;-81
2023/01/01 05:26:23;;;;;;;4.97;1.88;;;13.20;99.90;;;;;;6044684;23;20025;-79
2023/01/01 05:28:49;;;;;;;7.60;1.50;;;13.20;99.90;;;;;;6070730;23;20015;-81
2023/01/01 05:31:17;;;;;;;8.80;1.80;;;13.20;99.90;;;;;;6070170;23;20306;-80
2023/01/01 05:33:43;;;;;;;7.85;1.50;;;13.20;99.90;;;;;;6070401;23;20079;-79
2023/01/01 05:36:14;;;;;;;9.32;1.52;;;13.20;99.90;;;;;;6044532;23;20022;-80
2023/01/01 05:38:40;;;;;;;6.38;1.73;;;13.20;99.90;;;;;;6044797;23;20015;-82
2023/01/01 05:41:07;;;;;;;9.75;1.83;;;13.20;99.90;;;;;;6044399;23;20014;-80
2023/01/01 05:43:33;;;;;;;4.70;1.13;;;13.20;99.90;;;;;;6070434;23;20476;-77
2023/01/01 05:46:03;;;;;;;6.72;1.20;;;13.10;99.90;;;;;;6044040;23;20508;-82
2023/01/01 05:48:29;;;;;;;6.97;1.52;;;13.10;99.90;;;;;;6044765;23;20022;-80
2023/01/01 05:51:01;;;;;;;9.57;1.23;;;13.10;99.90;;;;;;6021107;23;20401;-80
2023/01/01 05:53:28;;;;;;;6.93;1.50;;;13.00;99.90;;;;;;6070850;23;20015;-80
2023/01/01 05:55:54;;;;;;;4.32;1.02;;;13.10;99.90;;;;;;6070382;23;20436;-78
2023/01/01 05:58:20;;;;;;;6.90;1.60;;;13.00;99.90;;;;;;6044656;23;20085;-81
2023/01/01 06:00:45;;;;;;;9.40;1.80;;;13.00;99.90;;;;;;6070105;23;20014;-82
2023/01/01 06:03:11;;;;;;;6.47;1.40;;;13.00;99.90;;;;;;6044209;23;20014;-79
2023/01/01 06:05:37;;;;;;;4.18;1.17;;;13.00;99.90;;;;;;6070226;23;20010;-79
2023/01/01 06:08:02;;;;;;;8.48;1.05;;;12.90;99.90;;;;;;6044268;23;20022;-81
2023/01/01 06:10:28;;;;;;;5.90;1.17;;;12.90;99.90;;;;;;6070281;23;20022;-79
2023/01/01 06:12:57;;;;;;;6.70;1.13;;;12.90;99.90;;;;;;6044534;23;20398;-80
2023/01/01 06:15:24;;;;;;;8.60;1.33;;;12.90;99.90;;;;;;6043961;23;20094;-80
2023/01/01 06:17:50;;;;;;;5.50;1.15;;;12.80;99.90;;;;;;6021396;23;20015;-78
2023/01/01 06:20:16;;;;;;;10.48;1.35;;;12.90;99.90;;;;;;6069729;23;20013;-80
2023/01/01 06:22:41;;;;;;;6.63;0.95;;;12.80;99.90;;;;;;6044672;23;20095;-81
2023/01/01 06:25:08;;;;;;;5.32;1.48;;;12.80;99.90;;;;;;6044617;23;20018;-80
2023/01/01 06:27:37;;;;;;;7.05;1.35;;;12.80;99.90;;;;;;6044078;23;20014;-80
2023/01/01 06:30:04;;;;;;;5.88;1.15;;;12.70;99.90;;;;;;6069655;23;20015;-79
2023/01/01 06:32:31;;;;;;;8.80;1.55;;;12.70;99.90;;;;;;6020748;23;20054;-80
2023/01/01 06:34:56;;;;;;;9.65;1.75;;;12.70;99.90;;;;;;6070090;23;20122;-81
2023/01/01 06:37:22;;;;;;;9.10;1.15;;;12.70;99.90;;;;;;6043916;23;20018;-80
2023/01/01 06:39:47;;;;;;;7.93;1.48;;;12.70;99.90;;;;;;6045930;23;20018;-83
2023/01/01 06:42:13;;;;;;;7.10;1.10;;;12.70;99.90;;;;;;6046340;23;20031;-80
2023/01/01 06:44:39;;;;;;;10.20;1.83;;;12.70;99.90;;;;;;6045985;23;20030;-79
2023/01/01 06:47:05;;;;;;;7.65;1.25;;;12.60;99.90;;;;;;6045509;23;20045;-78
2023/01/01 06:49:31;;;;;;;11.88;1.60;;;12.60;99.90;;;;;;6045537;23;20071;-78
2023/01/01 06:51:57;;;;;;;15.32;1.58;;;12.50;99.90;;;;;;6071051;23;20022;-79
2023/01/01 06:54:22;;;;;;;12.13;2.03;;;12.50;99.90;;;;;;6071686;23;20013;-81
2023/01/01 06:56:48;;;;;;;9.10;1.50;;;12.50;99.90;;;;;;6046608;23;20117;-81
2023/01/01 06:59:15;;;;;;;8.02;1.25;;;12.50;99.90;;;;;;6022548;23;20019;-81
2023/01/01 07:01:41;;;;;;;13.60;2.10;;;12.40;99.90;;;;;;6021287;23;20401;-82
2023/01/01 07:04:11;;;;;;;12.57;2.67;;;12.40;99.90;;;;;;6045523;23;20023;-78
2023/01/01 07:06:37;;;;;;;13.88;1.70;;;12.50;99.90;;;;;;6070952;23;20310;-81
2023/01/01 07:09:04;;;;;;;12.73;2.08;;;12.40;99.90;;;;;;6046064;23;20019;-80
2023/01/01 07:11:30;;;;;;;10.88;1.70;;;12.40;99.90;;;;;;6071314;23;20017;-81
2023/01/01 07:13:56;;;;;;;18.08;1.98;;;12.40;99.90;;;;;;6046372;23;20019;-82
2023/01/01 07:16:22;;;;;;;12.88;1.90;;;12.40;99.90;;;;;;6046281;23;20042;-78
2023/01/01 07:18:49;;;;;;;12.68;2.42;;;12.30;99.90;;;;;;6070969;23;20151;-81
2023/01/01 07:21:29;;;;;;;11.35;2.00;;;12.30;99.90;;;;;;6071227;23;20015;-79
2023/01/01 07:24:00;;;;;;;8.93;1.83;;;12.30;99.90;;;;;;6071025;23;20340;-82
2023/01/01 07:26:27;;;;;;;13.10;1.90;;;12.30;99.90;;;;;;6045451;23;20014;-80
2023/01/01 07:28:52;;;;;;;10.85;1.75;;;12.30;99.90;;;;;;6071458;23;20058;-79
2023/01/01 07:31:18;;;;;;;15.35;2.25;;;12.20;99.90;;;;;;6070779;23;20014;-80
2023/01/01 07:33:44;;;;;;;16.23;1.77;;;12.20;99.90;;;;;;6045348;23;20441;-78
2023/01/01 07:36:10;;;;;;;18.27;2.50;;;12.20;99.90;;;;;;6045166;23;20022;-81
2023/01/01 07:38:35;;;;;;;13.00;2.47;;;12.20;99.90;;;;;;6046620;23;20019;-80
2023/01/01 07:41:01;;;;;;;14.85;2.20;;;12.20;99.90;;;;;;6045427;23;20086;-81
2023/01/01 07:43:27;;;;;;;12.45;2.45;;;12.20;99.90;;;;;;6071169;23;20345;-82
2023/01/01 07:45:56;;;;;;;9.90;2.42;;;12.20;99.90;;;;;;6046090;23;20022;-80
2023/01/01 07:48:22;;;;;;;9.45;1.85;;;12.20;99.90;;;;;;6071951;23;20090;-81
2023/01/01 07:50:49;;;;;;;15.57;2.05;;;12.10;99.90;;;;;;6071017;23;20018;-79
2023/01/01 07:53:14;;;;;;;13.98;3.05;;;12.10;99.90;;;;;;6071208;23;20457;-80
2023/01/01 07:55:40;;;;;;;17.92;3.05;;;12.10;99.90;;;;;;6045506;23;20070;-81
2023/01/01 07:58:06;;;;;;;9.07;1.73;;;12.10;99.90;;;;;;6070956;23;20332;-79
2023/01/01 08:00:31;;;;;;;11.40;2.10;;;12.10;99.90;;;;;;6021154;23;20015;-81
2023/01/01 08:02:57;;;;;;;19.20;2.28;;;12.10;99.90;;;;;;6045710;23;20014;-81
2023/01/01 08:05:23;;;;;;;22.48;4.22;;;12.10;99.90;;;;;;6045563;23;20015;-82
2023/01/01 08:07:50;;;;;;;15.27;2.05;;;12.10;99.90;;;;;;6071263;23;20198;-82
2023/01/01 08:10:18;;;;;;;17.27;2.92;;;12.10;99.90;;;;;;6045398;23;20015;-81
2023/01/01 08:12:45;;;;;;;12.32;2.63;;;12.00;99.90;;;;;;6045482;23;20080;-79
2023/01/01 08:15:11;;;;;;;14.55;2.42;;;12.00;99.90;;;;;;6045886;23;20029;-81
2023/01/01 08:17:38;;;;;;;16.20;2.28;;;12.00;99.90;;;;;;6045539;23;20291;-79
2023/01/01 08:20:05;;;;;;;16.73;2.15;;;12.00;99.90;;;;;;6045145;23;20022;-82
2023/01/01 08:22:31;;;;;;;13.43;2.10;;;12.00;99.90;;;;;;6045951;23;20026;-80
2023/01/01 08:24:57;;;;;;;15.10;2.63;;;12.00;99.90;;;;;;6044968;23;20050;-79
2023/01/01 08:27:22;;;;;;;13.75;2.30;;;11.90;99.90;;;;;;6045546;23;20083;-80
2023/01/01 08:29:48;;;;;;;17.52;2.38;;;11.90;99.90;;;;;;6045390;23;20022;-80
2023/01/01 08:32:14;;;;;;;18.85;3.50;;;11.90;99.90;;;;;;6071371;23;20364;-83
2023/01/01 08:34:40;;;;;;;15.27;1.80;;;11.90;99.90;;;;;;6072154;23;20015;-81
2023/01/01 08:37:06;;;;;;;17.20;2.88;;;11.90;99.90;;;;;;6071803;23;20014;-82
2023/01/01 08:39:32;;;;;;;14.48;2.28;;;11.90;99.90;;;;;;6072507;23;20022;-85
2023/01/01 08:41:57;;;;;;;14.40;2.33;;;11.90;99.90;;;;;;6073226;23;20400;-82
2023/01/01 08:44:23;;;;;;;20.60;2.35;;;11.90;99.90;;;;;;6046051;23;20019;-82
2023/01/01 08:46:51;;;;;;;17.15;2.30;;;11.90;99.90;;;;;;6045487;23;20500;-83
2023/01/01 08:49:17;;;;;;;18.63;3.55;;;11.90;99.90;;;;;;6044659;23;20050;-81
2023/01/01 08:51:42;;;;;;;20.33;2.40;;;11.90;99.90;;;;;;6045209;23;20026;-82
2023/01/01 08:54:08;;;;;;;14.20;2.25;;;11.90;99.90;;;;;;6071127;23;20046;-82
2023/01/01 08:56:34;;;;;;;22.58;3.60;;;11.80;99.90;;;;;;6046185;23;20428;-83
2023/01/01 08:59:00;;;;;;;16.75;2.10;;;11.80;99.90;;;;;;6045080;23;20015;-81
2023/01/01 09:01:26;;;;;;;13.35;2.58;;;11.90;99.90;;;;;;6070842;23;20084;-82
2023/01/01 09:03:52;;;;;;;15.05;2.20;;;11.80;99.90;;;;;;6045999;23;20019;-81
2023/01/01 09:06:18;;;;;;;22.98;3.03;;;11.90;99.90;;;;;;6022620;23;20015;-82
2023/01/01 09:08:44;;;;;;;18.58;2.60;;;11.90;99.90;;;;;;6045845;23;20014;-81
2023/01/01 09:11:24;;;;;;;15.43;2.83;;;11.90;99.90;;;;;;6045353;23;20054;-81
2023/01/01 09:13:51;;;;;;;14.55;2.17;;;11.90;99.90;;;;;;6022181;23;20445;-78
2023/01/01 09:16:17;;;;;;;22.33;2.92;;;11.90;99.90;;;;;;6072845;23;20306;-82
2023/01/01 09:18:43;;;;;;;19.20;2.50;;;11.90;99.90;;;;;;6047438;23;20022;-81
2023/01/01 09:21:08;;;;;;;17.85;3.47;;;11.90;99.90;;;;;;6046930;23;20019;-83
2023/01/01 09:23:34;;;;;;;21.80;3.63;;;11.90;99.90;;;;;;6047357;23;20019;-83
2023/01/01 09:26:08;;;;;;;14.90;2.03;;;11.90;99.90;;;;;;6045913;23;20104;-81
2023/01/01 09:28:34;;;;;;;14.23;3.15;;;11.80;99.90;;;;;;6072386;23;20025;-81
2023/01/01 09:31:00;;;;;;;18.17;2.72;;;11.90;99.90;;;;;;6047093;23;20349;-81
2023/01/01 09:33:27;;;;;;;15.73;2.55;;;11.90;99.90;;;;;;6045981;23;20030;-83
2023/01/01 09:35:52;;;;;;;19.00;2.92;;;11.90;99.90;;;;;;6073258;23;20014;-82
2023/01/01 09:38:18;;;;;;;14.18;2.33;;;11.90;99.90;;;;;;6047854;23;20014;-82
2023/01/01 09:41:02;;;;;;;18.00;3.13;;;11.90;99.90;;;;;;6046703;23;20494;-81
2023/01/01 09:43:44;;;;;;;14.88;2.38;;;11.90;99.90;;;;;;6046737;23;20082;-82
2023/01/01 09:46:10;;;;;;;21.35;2.83;;;11.90;99.90;;;;;;6046704;23;20019;-82
2023/01/01 09:48:55;;;;;;;15.43;2.65;;;11.90;99.90;;;;;;6046968;23;20002;-82
2023/01/01 09:51:22;;;;;;;14.50;2.08;;;11.90;99.90;;;;;;6045946;23;20023;-82
2023/01/01 09:54:00;;;;;;;19.88;3.20;;;11.90;99.90;;;;;;6046289;23;20327;-82
2023/01/01 09:56:28;;;;;;;18.77;3.03;;;11.90;99.90;;;;;;6045966;23;20010;-83
2023/01/01 09:58:57;;;;;;;15.25;2.58;;;11.90;99.90;;;;;;6071091;23;20319;-80
2023/01/01 10:01:38;;;;;;;16.48;3.65;;;11.90;99.90;;;;;;6071238;23;20030;-83
2023/01/01 10:04:25;;;;;;;18.23;2.60;;;11.90;99.90;;;;;;6070639;23;20445;-81
2023/01/01 10:07:14;;;;;;;12.48;2.13;;;11.80;99.90;;;;;;6070694;23;20311;-82
2023/01/01 10:10:08;;;;;;;14.57;3.25;;;11.80;99.90;;;;;;6045511;23;20336;-82
2023/01/01 10:12:44;;;;;;;12.20;2.28;;;11.80;99.90;;;;;;6044450;23;20113;-80
2023/01/01 10:15:25;;;;;;;15.73;2.20;;;11.80;99.90;;;;;;6045998;23;20022;-83
2023/01/01 10:17:58;;;;;;;16.55;2.55;;;11.70;99.90;;;;;;6072271;23;20015;-84
2023/01/01 10:20:30;;;;;;;13.02;1.67;;;11.70;99.90;;;;;;6046776;23;20011;-81
2023/01/01 10:23:10;;;;;;;12.30;2.70;;;11.80;99.90;;;;;;6073464;23;20011;-81
2023/01/01 10:25:38;;;;;;;14.57;2.80;;;11.70;99.90;;;;;;6047386;23;20019;-81
2023/01/01 10:28:12;;;;;;;15.77;3.00;;;11.80;99.90;;;;;;6072230;23;20015;-81
2023/01/01 10:30:41;;;;;;;12.90;2.30;;;11.80;99.90;;;;;;6071604;23;20401;-82
2023/01/01 10:33:13;;;;;;;14.20;2.10;;;11.70;99.90;;;;;;6022364;23;20018;-81
2023/01/01 10:35:47;;;;;;;12.15;2.08;;;11.80;99.90;;;;;;6045957;23;20349;-83
2023/01/01 10:38:24;;;;;;;11.25;1.65;;;11.70;99.90;;;;;;6072248;23;20015;-83
2023/01/01 10:41:01;;;;;;;12.85;2.20;;;11.80;99.90;;;;;;6071250;23;20014;-82
2023/01/01 10:43:26;;;;;;;14.90;2.67;;;11.90;99.90;;;;;;6047043;23;20019;-86
2023/01/01 10:45:53;;;;;;;8.57;1.80;;;11.90;99.90;;;;;;6023388;23;20026;-80
2023/01/01 10:48:20;;;;;;;16.65;1.92;;;11.90;99.90;;;;;;6023957;23;20468;-83
2023/01/01 10:50:53;;;;;;;9.65;1.88;;;11.90;99.90;;;;;;6024997;23;20045;-79
2023/01/01 10:53:40;;;;;;;9.48;1.75;;;11.90;99.90;;;;;;6055689;23;20094;-78
2023/01/01 10:56:20;;;;;;;10.52;2.15;;;12.00;99.90;;;;;;6034412;23;20022;-83
2023/01/01 10:58:55;;;;;;;7.80;1.42;;;11.90;99.90;;;;;;6049772;23;20468;-82
2023/01/01 11:01:25;;;;;;;12.90;2.43;;;11.90;99.90;;;;;;6047550;23;20051;-81
2023/01/01 11:04:01;;;;;;;9.57;1.48;;;11.90;99.90;;;;;;6073553;23;20014;-83
2023/01/01 11:06:39;;;;;;;11.45;1.77;;;11.90;99.90;;;;;;6073346;23;20442;-82
2023/01/01 11:09:20;;;;;;;13.95;1.58;;;11.90;99.90;;;;;;6047540;23;20353;-82
2023/01/01 11:11:53;;;;;;;14.43;2.08;;;11.90;99.90;;;;;;6072255;23;20011;-83
2023/01/01 11:14:27;;;;;;;9.55;1.80;;;11.90;99.90;;;;;;6046305;23;20022;-81
2023/01/01 11:16:54;;;;;;;12.85;2.70;;;11.90;99.90;;;;;;6046388;23;20460;-82
2023/01/01 11:19:36;;;;;;;14.98;1.60;;;11.90;99.90;;;;;;6072439;23;20018;-80
2023/01/01 11:22:04;;;;;;;7.88;1.80;;;12.00;99.90;;;;;;6047604;23;20299;-82
2023/01/01 11:24:34;;;;;;;11.00;1.92;;;12.00;99.90;;;;;;6022304;23;20019;-81
2023/01/01 11:27:22;;;;;;;9.82;1.92;;;12.00;99.90;;;;;;6071921;23;20018;-81
2023/01/01 11:29:50;;;;;;;13.35;1.98;;;12.10;99.90;;;;;;6071688;23;20471;-79
2023/01/01 11:32:31;;;;;;;29.10;2.55;;;12.00;99.90;;;;;;6071712;23;20362;-82
2023/01/01 11:35:02;;;;;;;10.18;2.10;;;12.10;99.90;;;;;;6071206;23;20015;-80
2023/01/01 11:37:34;;;;;;;10.15;1.75;;;12.00;99.90;;;;;;6022807;23;20018;-81
2023/01/01 11:40:02;;;;;;;16.02;2.38;;;12.00;99.90;;;;;;6046540;23;20092;-82
2023/01/01 11:42:32;;;;;;;16.40;2.63;;;12.10;99.90;;;;;;6071837;23;20015;-81
2023/01/01 11:45:13;;;;;;;11.57;1.70;;;12.00;99.90;;;;;;6046072;23;20385;-82
2023/01/01 11:47:42;;;;;;;10.93;1.58;;;12.10;99.90;;;;;;6046859;23;20019;-81
2023/01/01 11:50:13;;;;;;;14.93;2.25;;;12.20;99.90;;;;;;6072804;23;20022;-84
2023/01/01 11:52:50;;;;;;;13.32;1.75;;;12.30;99.90;;;;;;6046635;23;20021;-82
2023/01/01 11:55:30;;;;;;;11.02;1.70;;;12.40;99.90;;;;;;6046599;23;20061;-81
2023/01/01 11:58:12;;;;;;;10.80;2.20;;;12.60;99.90;;;;;;6073403;23;20014;-82
2023/01/01 12:00:37;;;;;;;14.93;2.35;;;12.80;99.90;;;;;;6071487;23;20392;-82
2023/01/01 12:03:15;;;;;;;13.57;1.98;;;13.00;99.90;;;;;;6046901;23;20014;-82
2023/01/01 12:06:09;;;;;;;9.95;2.45;;;13.00;99.90;;;;;;6072466;23;20429;-87
2023/01/01 12:08:45;;;;;;;18.75;3.30;;;12.90;99.90;;;;;;6066990;23;20062;-78
2023/01/01 12:11:36;;;;;;;11.88;2.40;;;12.80;99.90;;;;;;6072103;23;20014;-84
2023/01/01 12:14:20;;;;;;;25.70;2.40;;;12.80;99.90;;;;;;6070510;23;20022;-82
2023/01/01 12:16:58;;;;;;;15.63;2.15;;;12.70;99.90;;;;;;6045255;23;20070;-84
2023/01/01 12:19:35;;;;;;;18.67;3.05;;;12.60;99.90;;;;;;6071119;23;20014;-82
2023/01/01 12:22:01;;;;;;;10.75;1.52;;;12.60;99.90;;;;;;6045921;23;20513;-79
2023/01/01 12:24:36;;;;;;;13.73;1.77;;;12.60;99.90;;;;;;6045698;23;20346;-80
2023/01/01 12:27:16;;;;;;;13.38;1.88;;;12.60;99.90;;;;;;6045911;23;20025;-83
2023/01/01 12:29:59;;;;;;;32.30;16.08;;;12.60;99.90;;;;;;6046572;23;20025;-82
2023/01/01 12:33:03;;;;;;;11.70;2.05;;;12.60;99.90;;;;;;6022362;23;20019;-81
2023/01/01 12:35:50;;;;;;;15.23;2.95;;;12.60;99.90;;;;;;6071278;23;20021;-82
2023/01/01 12:39:03;;;;;;;12.98;1.95;;;12.70;99.90;;;;;;6071248;23;20311;-83
2023/01/01 12:42:16;;;;;;;10.95;2.80;;;12.70;99.90;;;;;;6046407;23;20041;-83
2023/01/01 12:44:53;;;;;;;22.30;3.47;;;12.70;99.90;;;;;;6061438;23;20027;-82
2023/01/01 12:47:40;;;;;;;12.65;1.98;;;12.70;99.90;;;;;;6071291;23;20018;-82
2023/01/01 12:50:42;;;;;;;13.13;2.95;;;12.70;99.90;;;;;;6046677;23;20019;-83
2023/01/01 12:53:25;;;;;;;17.42;2.83;;;12.70;99.90;;;;;;6045411;23;20018;-84
2023/01/01 12:56:21;;;;;;;12.15;1.75;;;12.60;99.90;;;;;;6044866;23;20015;-83
2023/01/01 12:59:30;;;;;;;11.48;2.20;;;12.60;99.90;;;;;;6021399;23;20014;-82
2023/01/01 13:01:59;;;;;;;10.63;1.83;;;12.60;99.90;;;;;;5954313;24;20556;-80
2023/01/01 13:04:25;;;;;;;11.10;1.92;;;12.50;99.90;;;;;;5931619;24;20478;-81
2023/01/01 13:07:03;;;;;;;11.82;1.50;;;12.50;99.90;;;;;;5992118;23;20489;-80
2023/01/01 13:09:38;;;;;;;13.18;2.55;;;12.60;99.90;;;;;;6070593;23;20018;-81
2023/01/01 13:12:23;;;;;;;22.70;4.30;;;12.50;99.90;;;;;;6045173;23;20337;-79
2023/01/01 13:14:49;;;;;;;17.67;2.10;;;12.50;99.90;;;;;;6044843;23;20019;-81
2023/01/01 13:17:26;;;;;;;11.27;2.05;;;12.50;99.90;;;;;;6070700;23;20342;-81
2023/01/01 13:20:15;;;;;;;16.08;1.90;;;12.50;99.90;;;;;;6044891;23;20018;-82
2023/01/01 13:22:43;;;;;;;18.08;3.15;;;12.50;99.90;;;;;;6020771;23;20019;-80
2023/01/01 13:25:09;;;;;;;14.18;2.28;;;12.60;99.90;;;;;;6069981;23;20018;-80
2023/01/01 13:27:59;;;;;;;16.05;2.28;;;12.50;99.90;;;;;;6020590;23;20102;-82
2023/01/01 13:30:42;;;;;;;13.90;2.80;;;12.50;99.90;;;;;;6044238;23;20027;-80
2023/01/01 13:33:30;;;;;;;19.70;2.33;;;12.50;99.90;;;;;;6069912;23;20018;-79
2023/01/01 13:36:10;;;;;;;26.38;4.72;;;12.50;99.90;;;;;;6070144;23;20015;-82
2023/01/01 13:38:48;;;;;;;9.15;2.45;;;12.40;99.90;;;;;;6070229;23;20081;-82
2023/01/01 13:41:35;;;;;;;10.63;1.70;;;12.40;99.90;;;;;;6070554;23;20015;-80
2023/01/01 13:44:04;;;;;;;16.88;2.45;;;12.40;99.90;;;;;;6070188;23;20336;-82
2023/01/01 13:46:42;;;;;;;19.05;3.10;;;12.40;99.90;;;;;;6020817;23;20094;-81
2023/01/01 13:49:17;;;;;;;17.27;3.88;;;12.30;99.90;;;;;;6069189;23;20434;-80
2023/01/01 13:52:17;;;;;;;11.88;2.55;;;12.30;99.90;;;;;;6069746;23;20018;-83
2023/01/01 13:55:18;;;;;;;12.27;2.15;;;12.30;99.90;;;;;;6069960;23;20349;-82
2023/01/01 13:58:03;;;;;;;17.48;2.20;;;12.30;99.90;;;;;;6044129;23;20015;-81
2023/01/01 14:01:03;;;;;;;18.55;3.95;;;12.30;99.90;;;;;;6069603;23;20014;-80
2023/01/01 14:03:38;;;;;;;13.82;2.65;;;12.30;99.90;;;;;;6020670;23;20493;-81
2023/01/01 14:06:10;;;;;;;14.00;3.23;;;12.30;99.90;;;;;;6045132;23;20023;-80
2023/01/01 14:08:37;;;;;;;9.55;2.17;;;12.20;99.90;;;;;;6070089;23;20243;-81
2023/01/01 14:11:19;;;;;;;12.45;2.10;;;12.20;99.90;;;;;;6070600;23;20014;-81
2023/01/01 14:13:46;;;;;;;14.95;3.35;;;12.30;99.90;;;;;;6069928;23;20022;-82
2023/01/01 14:16:13;;;;;;;16.20;4.03;;;12.20;99.90;;;;;;6044980;23;20042;-80
2023/01/01 14:18:45;;;;;;;13.90;3.03;;;12.10;99.90;;;;;;6070210;23;20359;-81
2023/01/01 14:21:18;;;;;;;15.07;3.45;;;12.20;99.90;;;;;;6070401;23;20026;-81
2023/01/01 14:23:56;;;;;;;15.35;3.05;;;12.20;99.90;;;;;;6069914;23;20385;-81
2023/01/01 14:26:25;;;;;;;20.52;4.15;;;12.10;99.90;;;;;;6043985;23;20050;-82
2023/01/01 14:28:59;;;;;;;16.80;3.00;;;12.10;99.90;;;;;;6069090;23;20023;-80
2023/01/01 14:31:35;;;;;;;18.65;3.40;;;12.10;99.90;;;;;;6043903;23;20026;-79
2023/01/01 14:34:26;;;;;;;19.92;2.63;;;12.00;99.90;;;;;;6044074;23;20025;-80
2023/01/01 14:36:57;;;;;;;13.18;2.47;;;12.10;99.90;;;;;;6070307;23;20006;-82
2023/01/01 14:39:34;;;;;;;16.10;3.85;;;12.00;99.90;;;;;;6069675;23;20092;-81
2023/01/01 14:42:06;;;;;;;17.83;2.88;;;12.00;99.90;;;;;;6069825;23;20097;-81
2023/01/01 14:44:41;;;;;;;22.17;4.07;;;12.00;99.90;;;;;;6069555;23;20018;-80
2023/01/01 14:47:23;;;;;;;18.20;3.05;;;12.00;99.90;;;;;;6045534;23;20090;-82
2023/01/01 14:49:50;;;;;;;20.17;2.90;;;12.00;99.90;;;;;;6069577;23;20429;-81
2023/01/01 14:52:24;;;;;;;13.70;2.85;;;11.90;99.90;;;;;;6069192;23;20075;-80
2023/01/01 14:54:52;;;;;;;12.95;3.05;;;11.90;99.90;;;;;;6045294;23;20011;-82
2023/01/01 14:57:31;;;;;;;17.27;2.80;;;11.90;99.90;;;;;;6044079;23;20074;-81
2023/01/01 14:59:57;;;;;;;16.58;3.22;;;11.90;99.90;;;;;;6069926;23;20014;-83
2023/01/01 15:02:27;;;;;;;12.23;3.17;;;11.90;99.90;;;;;;6070350;23;20007;-80
2023/01/01 15:04:52;;;;;;;13.63;3.08;;;11.80;99.90;;;;;;6071850;23;20085;-81
2023/01/01 15:07:29;;;;;;;15.70;2.63;;;11.80;99.90;;;;;;6045606;23;20438;-80
2023/01/01 15:10:01;;;;;;;14.32;3.70;;;11.80;99.90;;;;;;6071639;23;20026;-81
2023/01/01 15:12:28;;;;;;;18.73;3.17;;;11.80;99.90;;;;;;6071504;23;20042;-82
2023/01/01 15:14:55;;;;;;;19.42;3.15;;;11.70;99.90;;;;;;6071618;23;20091;-82
2023/01/01 15:17:24;;;;;;;16.17;3.80;;;11.70;99.90;;;;;;6046767;23;20011;-82
2023/01/01 15:20:06;;;;;;;19.02;3.42;;;11.70;99.90;;;;;;6046089;23;20022;-81
2023/01/01 15:22:36;;;;;;;18.92;4.22;;;11.60;99.90;;;;;;6071407;23;20074;-81
2023/01/01 15:25:02;;;;;;;22.02;4.30;;;11.60;99.90;;;;;;6045746;23;20014;-82
2023/01/01 15:27:31;;;;;;;20.77;3.45;;;11.60;99.90;;;;;;6045501;23;20437;-82
2023/01/01 15:29:57;;;;;;;21.63;3.40;;;11.60;99.90;;;;;;6071099;23;20017;-81
2023/01/01 15:32:31;;;;;;;19.00;3.95;;;11.50;99.90;;;;;;6045891;23;20089;-82
2023/01/01 15:35:01;;;;;;;22.55;4.30;;;11.50;99.90;;;;;;6070584;23;20468;-81
2023/01/01 15:37:43;;;;;;;16.98;2.97;;;11.50;99.90;;;;;;6070622;23;20437;-82
2023/01/01 15:40:12;;;;;;;19.17;4.38;;;11.40;99.90;;;;;;6070856;23;20034;-82
2023/01/01 15:42:40;;;;;;;30.52;11.88;;;11.40;99.90;;;;;;6070505;23;20015;-82
2023/01/01 15:45:30;;;;;;;24.42;7.57;;;11.40;99.90;;;;;;6070700;23;20097;-82
2023/01/01 15:48:04;;;;;;;30.30;13.23;;;11.40;99.90;;;;;;6045368;23;20058;-80
2023/01/01 15:50:35;;;;;;;28.90;9.50;;;11.30;99.90;;;;;;6045253;23;20019;-83
2023/01/01 15:53:22;;;;;;;20.70;5.85;;;11.30;99.90;;;;;;6070951;23;20239;-81
2023/01/01 15:56:02;;;;;;;23.38;5.85;;;11.30;99.90;;;;;;6044448;23;20031;-82
2023/01/01 15:58:47;;;;;;;31.98;10.35;;;11.30;99.90;;;;;;6045635;23;20026;-81
2023/01/01 16:01:17;;;;;;;21.85;5.97;;;11.30;99.90;;;;;;6045868;23;20023;-82
2023/01/01 16:03:45;;;;;;;27.55;5.28;;;11.30;99.90;;;;;;6048216;23;20091;-78
2023/01/01 16:06:16;;;;;;;21.88;7.50;;;11.20;99.90;;;;;;6052969;23;20014;-79
2023/01/01 16:08:42;;;;;;;14.52;2.72;;;11.30;99.90;;;;;;6047559;23;20019;-82
2023/01/01 16:11:08;;;;;;;24.05;5.13;;;11.30;99.90;;;;;;6070671;23;20290;-81
2023/01/01 16:13:33;;;;;;;16.00;2.92;;;11.20;99.90;;;;;;6045215;23;20021;-82
2023/01/01 16:16:01;;;;;;;13.52;3.83;;;11.20;99.90;;;;;;6045426;23;20123;-82
2023/01/01 16:18:30;;;;;;;18.75;3.55;;;11.20;99.90;;;;;;6046864;23;20014;-82
2023/01/01 16:20:56;;;;;;;19.58;3.78;;;11.20;99.90;;;;;;6070787;23;20011;-82
2023/01/01 16:23:22;;;;;;;16.58;3.10;;;11.20;99.90;;;;;;6045703;23;20333;-82
2023/01/01 16:25:48;;;;;;;15.05;2.95;;;11.20;99.90;;;;;;6072097;23;20097;-82
2023/01/01 16:28:14;;;;;;;13.45;3.08;;;11.20;99.90;;;;;;6046130;23;20021;-81
2023/01/01 16:30:41;;;;;;;23.90;3.92;;;11.20;99.90;;;;;;6071239;23;20011;-81
2023/01/01 16:33:15;;;;;;;17.65;3.38;;;11.20;99.90;;;;;;6045785;23;20011;-82
2023/01/01 16:35:41;;;;;;;19.67;3.58;;;11.20;99.90;;;;;;6046069;23;20069;-81
2023/01/01 16:38:06;;;;;;;14.75;2.78;;;11.20;99.90;;;;;;6071884;23;20059;-82
2023/01/01 16:40:33;;;;;;;25.05;4.57;;;11.20;99.90;;;;;;6045364;23;20019;-82
2023/01/01 16:42:59;;;;;;;20.30;4.47;;;11.20;99.90;;;;;;6045550;23;20341;-81
2023/01/01 16:45:24;;;;;;;20.25;5.22;;;11.30;99.90;;;;;;6044763;23;20097;-82
2023/01/01 16:47:50;;;;;;;18.75;3.00;;;11.30;99.90;;;;;;6071501;23;20046;-80
2023/01/01 16:50:16;;;;;;;17.42;3.25;;;11.30;99.90;;;;;;6045031;23;20503;-80
2023/01/01 16:52:42;;;;;;;32.85;9.52;;;11.30;99.90;;;;;;6046016;23;20434;-82
2023/01/01 16:55:07;;;;;;;20.80;7.47;;;11.30;99.90;;;;;;6071618;23;20011;-82
2023/01/01 16:57:34;;;;;;;17.00;3.45;;;11.30;99.90;;;;;;6071477;23;20018;-82
2023/01/01 17:00:00;;;;;;;21.38;3.50;;;11.30;99.90;;;;;;6072516;23;20050;-83
2023/01/01 17:02:27;;;;;;;13.85;3.22;;;11.30;99.90;;;;;;6071658;23;20011;-80
2023/01/01 17:04:53;;;;;;;15.20;3.53;;;11.30;99.90;;;;;;6044802;23;20054;-82
2023/01/01 17:07:19;;;;;;;21.42;4.68;;;11.30;99.90;;;;;;6046239;23;20019;-81
2023/01/01 17:09:44;;;;;;;21.20;4.30;;;11.30;99.90;;;;;;6070837;23;20015;-82
2023/01/01 17:12:10;;;;;;;16.58;3.90;;;11.30;99.90;;;;;;6045701;23;20071;-81
2023/01/01 17:14:36;;;;;;;18.02;3.58;;;11.30;99.90;;;;;;6071608;23;20125;-82
2023/01/01 17:17:02;;;;;;;25.15;4.82;;;11.30;99.90;;;;;;6071796;23;20394;-81
2023/01/01 17:19:27;;;;;;;20.88;4.65;;;11.30;99.90;;;;;;6072193;23;20011;-83
2023/01/01 17:21:53;;;;;;;19.30;3.78;;;11.20;99.90;;;;;;6070357;23;20528;-82
2023/01/01 17:24:19;;;;;;;17.98;3.72;;;11.20;99.90;;;;;;6021112;23;20093;-82
2023/01/01 17:26:49;;;;;;;19.38;3.80;;;11.20;99.90;;;;;;6044665;23;20023;-83
2023/01/01 17:29:14;;;;;;;17.55;3.75;;;11.20;99.90;;;;;;6071011;23;20019;-84
2023/01/01 17:31:40;;;;;;;23.80;4.93;;;11.10;99.90;;;;;;6044764;23;20011;-81
2023/01/01 17:34:06;;;;;;;17.75;3.97;;;11.10;99.90;;;;;;6043802;23;20098;-80
2023/01/01 17:36:32;;;;;;;18.92;4.13;;;11.10;99.90;;;;;;6044510;23;20501;-82
2023/01/01 17:38:57;;;;;;;18.67;4.45;;;11.10;99.90;;;;;;6069991;23;20022;-82
2023/01/01 17:41:23;;;;;;;19.10;4.50;;;11.10;99.90;;;;;;6044196;23;20019;-82
2023/01/01 17:43:50;;;;;;;22.23;4.90;;;11.20;99.90;;;;;;6070445;23;20038;-83
2023/01/01 17:46:28;;;;;;;17.13;4.82;;;11.10;99.90;;;;;;6070182;23;20070;-83
2023/01/01 17:48:54;;;;;;;19.25;6.55;;;11.10;99.90;;;;;;6044611;23;20010;-81
2023/01/01 17:51:20;;;;;;;26.63;7.80;;;11.10;99.90;;;;;;6044431;23;20405;-82
2023/01/01 17:53:46;;;;;;;27.25;9.43;;;11.10;99.90;;;;;;6044334;23;20441;-83
2023/01/01 17:56:14;;;;;;;22.23;8.30;;;11.10;99.90;;;;;;6070237;23;20011;-82
2023/01/01 17:58:41;;;;;;;14.40;5.68;;;11.10;99.90;;;;;;6020845;23;20140;-81
2023/01/01 18:01:09;;;;;;;22.38;6.40;;;11.10;99.90;;;;;;6069564;23;20433;-82